Time;durP1;ratioP1;P1;durP2;ratioP2;P2;SDS_P1;SDS_P2;PMS_P1;PMS_P2;Temp;Humidity;BMP_temperature;BMP_pressure;BME280_temperature;BME280_humidity;BME280_pressure;Samples;Min_cycle;Max_cycle;Signal;HPM_P1;HPM_P2
2021/09/14 00:00:52;;;;;;;68.33;46.30;;;;;;;14.51;100.00;99308.56;2082018;28;20207;-72
2021/09/14 00:01:54;;;;;;;73.68;48.33;;;;;;;14.51;100.00;99305.88;2073351;28;20211;-73
2021/09/14 00:02:56;;;;;;;59.67;45.35;;;;;;;14.51;100.00;99307.72;2073606;28;20687;-73
2021/09/14 00:03:57;;;;;;;69.25;47.15;;;;;;;14.50;100.00;99306.94;2073633;28;20602;-73
2021/09/14 00:04:58;;;;;;;60.93;44.07;;;;;;;14.49;100.00;99302.69;2082250;28;20205;-73
2021/09/14 00:05:59;;;;;;;63.92;47.33;;;;;;;14.49;100.00;99308.06;2082019;28;20202;-73
2021/09/14 00:07:02;;;;;;;62.97;45.63;;;;;;;14.51;100.00;99302.38;2082136;28;20576;-72
2021/09/14 00:08:03;;;;;;;66.20;46.30;;;;;;;14.54;100.00;99307.91;2082343;28;20253;-72
2021/09/14 00:09:05;;;;;;;63.13;46.27;;;;;;;14.55;100.00;99301.44;2090935;28;20183;-73
2021/09/14 00:10:08;;;;;;;60.22;44.35;;;;;;;14.52;100.00;99298.59;2081996;28;21029;-73
2021/09/14 00:11:10;;;;;;;58.65;45.88;;;;;;;14.52;100.00;99298.59;2082713;28;20302;-73
2021/09/14 00:12:12;;;;;;;69.03;46.45;;;;;;;14.51;100.00;99302.38;2081872;28;20203;-73
2021/09/14 00:13:14;;;;;;;62.70;45.65;;;;;;;14.50;100.00;99293.53;2082164;28;20734;-72
2021/09/14 00:14:15;;;;;;;62.97;45.92;;;;;;;14.51;100.00;99303.19;2081920;28;20235;-73
2021/09/14 00:15:17;;;;;;;62.53;44.43;;;;;;;14.50;100.00;99298.91;2082026;28;20674;-73
2021/09/14 00:16:19;;;;;;;58.50;44.90;;;;;;;14.50;100.00;99301.56;2090814;28;20704;-73
2021/09/14 00:17:22;;;;;;;61.92;45.53;;;;;;;14.50;100.00;99292.72;2090823;28;20230;-72
2021/09/14 00:18:25;;;;;;;63.22;45.03;;;;;;;14.51;100.00;99297.81;2090819;28;20559;-72
2021/09/14 00:19:27;;;;;;;62.87;46.27;;;;;;;14.51;100.00;99297.00;2081503;28;20229;-73
2021/09/14 00:20:27;;;;;;;63.70;44.78;;;;;;;14.50;100.00;99296.22;2081949;28;20196;-73
2021/09/14 00:21:29;;;;;;;59.83;44.40;;;;;;;14.51;100.00;99292.44;2081906;28;20278;-72
2021/09/14 00:22:33;;;;;;;63.58;46.75;;;;;;;14.51;100.00;99291.63;2081946;28;20563;-72
2021/09/14 00:23:38;;;;;;;64.13;45.22;;;;;;;14.51;100.00;99292.44;2090978;28;20645;-73
2021/09/14 00:24:38;;;;;;;58.85;44.92;;;;;;;14.53;100.00;99294.81;2090763;28;20191;-73
2021/09/14 00:25:40;;;;;;;60.23;44.67;;;;;;;14.52;100.00;99298.59;2090874;28;20274;-73
2021/09/14 00:26:41;;;;;;;59.47;44.17;;;;;;;14.52;100.00;99296.72;2081908;28;20687;-73
2021/09/14 00:27:43;;;;;;;57.13;44.43;;;;;;;14.52;100.00;99299.38;2082147;28;20179;-72
2021/09/14 00:28:44;;;;;;;57.33;45.15;;;;;;;14.51;100.00;99294.31;2090768;28;20202;-73
2021/09/14 00:29:46;;;;;;;59.87;44.13;;;;;;;14.52;100.00;99296.72;2090734;28;20194;-73
2021/09/14 00:30:47;;;;;;;60.67;44.95;;;;;;;14.52;100.00;99302.06;2090631;28;20179;-73
2021/09/14 00:31:50;;;;;;;63.38;44.75;;;;;;;14.53;100.00;99292.91;2081762;28;20195;-73
2021/09/14 00:32:51;;;;;;;57.97;43.95;;;;;;;14.54;100.00;99302.53;2073261;28;20792;-72
2021/09/14 00:33:53;;;;;;;63.30;45.60;;;;;;;14.53;100.00;99295.59;2081709;28;20655;-73
2021/09/14 00:34:53;;;;;;;52.72;42.13;;;;;;;14.52;100.00;99295.91;2073370;28;20203;-73
2021/09/14 00:35:55;;;;;;;67.47;45.27;;;;;;;14.53;100.00;99298.28;2073623;28;20201;-73
2021/09/14 00:36:56;;;;;;;56.17;42.35;;;;;;;14.55;100.00;99298.75;2082014;28;20675;-73
2021/09/14 00:37:58;;;;;;;57.35;45.05;;;;;;;14.56;100.00;99297.63;2081868;28;20199;-73
2021/09/14 00:38:59;;;;;;;61.28;45.28;;;;;;;14.54;100.00;99294.50;2081833;28;20195;-73
2021/09/14 00:40:02;;;;;;;57.72;44.40;;;;;;;14.52;100.00;99299.38;2090678;28;20711;-73
2021/09/14 00:41:03;;;;;;;55.88;43.20;;;;;;;14.50;100.00;99288.16;2081626;28;20326;-73
2021/09/14 00:42:04;;;;;;;59.58;43.88;;;;;;;14.50;100.00;99290.84;2081969;28;20188;-72
2021/09/14 00:43:07;;;;;;;58.60;43.47;;;;;;;14.48;100.00;99293.06;2081693;28;20299;-72
2021/09/14 00:44:08;;;;;;;58.05;42.47;;;;;;;14.49;100.00;99291.16;2081941;28;20284;-73
2021/09/14 00:45:12;;;;;;;58.87;44.23;;;;;;;14.47;100.00;99286.09;2090671;28;20222;-73
2021/09/14 00:46:14;;;;;;;60.58;44.03;;;;;;;14.46;100.00;99289.91;2090737;28;20202;-72
2021/09/14 00:47:16;;;;;;;56.85;43.80;;;;;;;14.45;100.00;99288.31;2081680;28;20199;-73
2021/09/14 00:48:17;;;;;;;56.95;44.65;;;;;;;14.44;100.00;99292.09;2081892;28;20230;-73
2021/09/14 00:49:19;;;;;;;61.72;42.95;;;;;;;14.42;100.00;99289.72;2090727;28;20195;-73
2021/09/14 00:50:20;;;;;;;56.83;43.80;;;;;;;14.42;100.00;99286.22;2081684;28;20206;-73
2021/09/14 00:51:23;;;;;;;55.77;43.50;;;;;;;14.41;100.00;99292.69;2081777;28;20195;-73
2021/09/14 00:52:25;;;;;;;59.90;43.10;;;;;;;14.40;100.00;99289.22;2090698;28;20195;-73
2021/09/14 00:53:27;;;;;;;57.30;43.27;;;;;;;14.40;100.00;99288.44;2090598;28;20186;-72
2021/09/14 00:54:28;;;;;;;58.60;43.70;;;;;;;14.37;100.00;99278.34;2090792;28;20190;-72
2021/09/14 00:55:29;;;;;;;55.23;43.83;;;;;;;14.37;100.00;99286.41;2081720;28;20246;-73
2021/09/14 00:56:30;;;;;;;60.72;43.85;;;;;;;14.34;100.00;99289.72;2081845;28;20226;-73
2021/09/14 00:57:36;;;;;;;62.10;44.53;;;;;;;14.35;100.00;99289.41;2081656;28;20199;-72
2021/09/14 00:58:38;;;;;;;60.47;44.83;;;;;;;14.33;100.00;99286.25;2074024;28;20666;-72
2021/09/14 00:59:40;;;;;;;57.25;43.85;;;;;;;14.29;100.00;99290.66;2081767;28;20541;-72
2021/09/14 01:00:41;;;;;;;63.80;44.80;;;;;;;14.30;100.00;99286.06;2080910;28;20211;-73
2021/09/14 01:01:42;;;;;;;57.77;43.80;;;;;;;14.28;100.00;99282.91;2081916;28;20263;-72
2021/09/14 01:02:43;;;;;;;55.45;41.95;;;;;;;14.27;100.00;99284.03;2090506;28;20222;-72
2021/09/14 01:03:46;;;;;;;56.80;44.37;;;;;;;14.26;100.00;99285.94;2090517;28;20194;-72
2021/09/14 01:04:47;;;;;;;59.47;43.20;;;;;;;14.29;100.00;99293.34;2090651;28;20217;-73
2021/09/14 01:05:48;;;;;;;59.87;44.10;;;;;;;14.24;100.00;99287.31;2090690;28;20191;-72
2021/09/14 01:06:50;;;;;;;58.15;44.03;;;;;;;14.23;100.00;99285.75;2081506;28;20294;-72
2021/09/14 01:07:52;;;;;;;59.40;43.70;;;;;;;14.23;100.00;99285.75;2072576;28;20251;-72
2021/09/14 01:08:53;;;;;;;56.42;43.17;;;;;;;14.23;100.00;99293.78;2081943;28;20445;-73
2021/09/14 01:09:55;;;;;;;58.43;45.17;;;;;;;14.22;100.00;99290.31;2081647;28;20198;-74
2021/09/14 01:10:55;;;;;;;60.38;43.58;;;;;;;14.22;100.00;99286.84;2073455;28;20200;-72
2021/09/14 01:11:58;;;;;;;60.10;43.87;;;;;;;14.20;100.00;99283.69;2073389;28;20806;-72
2021/09/14 01:12:59;;;;;;;56.72;43.88;;;;;;;14.18;100.00;99283.22;2081095;28;20199;-72
2021/09/14 01:14:04;;;;;;;58.47;43.63;;;;;;;14.16;100.00;99280.88;2081542;28;20737;-72
2021/09/14 01:15:06;;;;;;;59.13;45.78;;;;;;;14.14;100.00;99281.16;2073717;28;20196;-73
2021/09/14 01:16:11;;;;;;;55.80;44.33;;;;;;;14.14;100.00;99275.78;2081867;28;20187;-72
2021/09/14 01:17:12;;;;;;;62.25;44.38;;;;;;;14.12;100.00;99280.69;2081535;28;20195;-73
2021/09/14 01:18:13;;;;;;;61.73;43.80;;;;;;;14.13;100.00;99278.78;2073004;28;20292;-72
2021/09/14 01:19:15;;;;;;;54.97;43.10;;;;;;;14.11;100.00;99278.31;2073406;28;20730;-73
2021/09/14 01:20:17;;;;;;;59.70;42.47;;;;;;;14.10;100.00;99282.09;2081513;28;20247;-73
2021/09/14 01:21:20;;;;;;;59.70;44.47;;;;;;;14.10;100.00;99279.44;2073378;28;20325;-72
2021/09/14 01:22:25;;;;;;;59.65;44.47;;;;;;;14.08;100.00;99279.75;2073213;28;20255;-73
2021/09/14 01:23:27;;;;;;;56.85;43.55;;;;;;;14.07;100.00;99288.91;2081711;28;20191;-72
2021/09/14 01:24:30;;;;;;;60.65;44.13;;;;;;;14.07;100.00;99283.53;2073810;28;20335;-72
2021/09/14 01:25:41;;;;;;;57.58;44.20;;;;;;;14.07;100.00;99286.22;2074355;28;20184;-73
2021/09/14 01:26:43;;;;;;;63.17;44.95;;;;;;;14.06;100.00;99287.28;2073877;28;20200;-73
2021/09/14 01:27:49;;;;;;;57.90;44.03;;;;;;;14.04;100.00;99284.16;2073796;28;20199;-73
2021/09/14 01:28:57;;;;;;;62.67;43.97;;;;;;;14.05;100.00;99291.09;2074487;28;20557;-72
2021/09/14 01:30:12;;;;;;;63.93;45.27;;;;;;;14.02;100.00;99289.03;2073035;28;20298;-72
2021/09/14 01:31:15;;;;;;;65.28;45.20;;;;;;;14.03;100.00;99293.28;2075230;28;20885;-72
2021/09/14 01:32:15;;;;;;;65.30;46.50;;;;;;;14.03;100.00;99287.94;2081690;28;20211;-72
2021/09/14 01:33:19;;;;;;;64.90;46.50;;;;;;;14.05;100.00;99285.72;2090483;28;20194;-73
2021/09/14 01:34:20;;;;;;;75.75;47.28;;;;;;;14.04;100.00;99291.41;2081472;28;20245;-73
2021/09/14 01:35:23;;;;;;;64.70;47.00;;;;;;;14.03;100.00;99287.94;2081655;28;20274;-72
2021/09/14 01:36:28;;;;;;;68.43;45.50;;;;;;;14.01;100.00;99290.16;2081486;28;20253;-73
2021/09/14 01:37:31;;;;;;;65.60;47.33;;;;;;;13.98;100.00;99285.38;2072894;28;20259;-72
2021/09/14 01:38:32;;;;;;;70.22;47.40;;;;;;;13.97;100.00;99286.50;2081019;28;20564;-73
2021/09/14 01:39:35;;;;;;;79.50;47.20;;;;;;;13.99;100.00;99280.84;2073184;28;20228;-73
2021/09/14 01:40:38;;;;;;;65.07;48.22;;;;;;;13.98;100.00;99288.06;2081505;28;20187;-73
2021/09/14 01:41:42;;;;;;;67.45;46.15;;;;;;;14.00;100.00;99279.72;2074095;28;20607;-72
2021/09/14 01:42:43;;;;;;;60.22;45.55;;;;;;;13.98;100.00;99287.28;2073611;28;20248;-73
2021/09/14 01:43:45;;;;;;;69.40;47.40;;;;;;;13.96;100.00;99284.91;2083229;28;20191;-73
2021/09/14 01:44:45;;;;;;;63.30;46.60;;;;;;;13.95;100.00;99291.38;2083198;28;20613;-73
2021/09/14 01:45:48;;;;;;;68.50;44.50;;;;;;;13.95;100.00;99285.22;2075037;28;20196;-73
2021/09/14 01:46:57;;;;;;;65.63;45.35;;;;;;;13.95;100.00;99285.22;2076059;28;20655;-73
2021/09/14 01:48:01;;;;;;;62.00;45.20;;;;;;;13.92;100.00;99286.66;2083333;28;20654;-73
2021/09/14 01:49:02;;;;;;;61.67;44.65;;;;;;;13.90;100.00;99283.50;2083094;28;20261;-72
2021/09/14 01:50:05;;;;;;;65.67;46.13;;;;;;;13.91;100.00;99290.44;2074957;28;20200;-73
2021/09/14 01:51:06;;;;;;;66.40;46.25;;;;;;;13.88;100.00;99291.03;2083175;28;20569;-73
2021/09/14 01:52:07;;;;;;;63.88;44.92;;;;;;;13.89;100.00;99286.47;2074661;28;20689;-73
2021/09/14 01:53:10;;;;;;;60.80;45.90;;;;;;;13.86;100.00;99286.00;2074977;28;20654;-73
2021/09/14 01:54:13;;;;;;;70.68;46.97;;;;;;;13.86;100.00;99293.25;2075278;28;20223;-73
2021/09/14 01:55:19;;;;;;;71.50;47.50;;;;;;;13.85;100.00;99292.47;2075031;28;20196;-73
2021/09/14 01:56:21;;;;;;;62.67;45.85;;;;;;;13.84;100.00;99287.41;2075632;28;20490;-73
2021/09/14 01:57:25;;;;;;;67.33;47.10;;;;;;;13.81;100.00;99279.97;2082998;28;20205;-73
2021/09/14 01:58:26;;;;;;;70.38;46.22;;;;;;;13.79;100.00;99287.56;2075398;28;20682;-73
2021/09/14 01:59:32;;;;;;;67.25;47.15;;;;;;;13.79;100.00;99287.56;2083011;28;20192;-73
2021/09/14 02:00:45;;;;;;;63.92;46.28;;;;;;;13.78;100.00;99288.66;2075292;28;20208;-73
2021/09/14 02:01:58;;;;;;;65.88;45.22;;;;;;;13.77;100.00;99279.03;2077124;28;20180;-73
2021/09/14 02:03:14;;;;;;;63.00;45.78;;;;;;;13.75;100.00;99291.97;2083063;28;20210;-73
2021/09/14 02:04:19;;;;;;;70.00;46.97;;;;;;;13.73;100.00;99286.94;2082669;28;20712;-73
2021/09/14 02:05:33;;;;;;;67.30;47.15;;;;;;;13.70;100.00;99284.06;2074971;28;20290;-73
2021/09/14 02:08:16;;;;;;;62.65;45.50;;;;;;;13.68;100.00;99291.63;2079809;28;20279;-73
2021/09/14 02:24:37;;;;;;;57.90;44.30;;;;;;;13.51;100.00;99295.03;2082503;28;20196;-74
2021/09/14 02:33:57;;;;;;;66.32;46.25;;;;;;;13.46;100.00;99301.31;2074687;28;20249;-73
2021/09/14 02:40:45;;;;;;;64.90;45.05;;;;;;;13.45;100.00;99304.28;2076859;28;20203;-73
2021/09/14 02:45:03;;;;;;;70.85;46.58;;;;;;;13.34;100.00;99297.63;2046099;29;20558;-73
2021/09/14 02:56:56;;;;;;;67.50;46.83;;;;;;;13.00;100.00;99291.75;2083887;28;20633;-73
2021/09/14 02:59:19;;;;;;;66.55;43.28;;;;;;;12.96;100.00;99288.09;2091594;28;20174;-73
2021/09/14 03:00:20;;;;;;;65.70;44.33;;;;;;;12.96;100.00;99292.66;2082557;28;20204;-73
2021/09/14 03:01:22;;;;;;;65.32;44.08;;;;;;;12.92;100.00;99292.47;2074296;28;20310;-73
2021/09/14 03:02:24;;;;;;;65.57;43.28;;;;;;;12.88;100.00;99291.50;2074465;28;20207;-73
2021/09/14 03:03:25;;;;;;;64.63;43.47;;;;;;;12.86;100.00;99288.34;2074404;28;20200;-73
2021/09/14 03:04:30;;;;;;;68.73;47.50;;;;;;;12.84;100.00;99290.53;2074400;28;20674;-73
2021/09/14 03:05:31;;;;;;;64.40;45.45;;;;;;;12.81;100.00;99293.81;2083080;28;20557;-73
2021/09/14 03:06:32;;;;;;;56.90;43.10;;;;;;;12.80;100.00;99297.59;2082548;28;20785;-73
2021/09/14 03:07:38;;;;;;;58.63;42.67;;;;;;;12.77;100.00;99292.88;2075348;28;20235;-73
2021/09/14 03:08:40;;;;;;;59.30;43.73;;;;;;;12.74;100.00;99290.78;2074288;28;20683;-73
2021/09/14 03:09:42;;;;;;;60.15;45.55;;;;;;;12.71;100.00;99286.03;2074666;28;20200;-73
2021/09/14 03:10:44;;;;;;;62.00;45.73;;;;;;;12.68;100.00;99281.28;2082557;28;20755;-73
2021/09/14 03:11:52;;;;;;;64.00;45.13;;;;;;;12.67;100.00;99285.84;2082528;28;20218;-73
2021/09/14 03:12:53;;;;;;;59.72;43.88;;;;;;;12.66;100.00;99283.47;2075085;28;20275;-73
2021/09/14 03:13:56;;;;;;;60.93;44.27;;;;;;;12.62;100.00;99287.88;2074296;28;20197;-74
2021/09/14 03:14:57;;;;;;;64.30;44.45;;;;;;;12.61;100.00;99281.72;2074511;28;20686;-74
2021/09/14 03:15:59;;;;;;;59.90;44.53;;;;;;;12.60;100.00;99290.06;2074350;28;20569;-74
2021/09/14 03:17:00;;;;;;;59.95;43.13;;;;;;;12.57;100.00;99291.44;2074343;28;20308;-73
2021/09/14 03:18:02;;;;;;;66.37;46.67;;;;;;;12.55;100.00;99293.63;2074406;28;20200;-73
2021/09/14 03:19:04;;;;;;;68.30;45.10;;;;;;;12.52;100.00;99290.78;2074530;28;20219;-74
2021/09/14 03:20:05;;;;;;;63.72;44.33;;;;;;;12.49;100.00;99292.16;2074338;28;20199;-74
2021/09/14 03:21:10;;;;;;;64.75;44.90;;;;;;;12.47;100.00;99286.31;2082702;28;20196;-74
2021/09/14 03:22:11;;;;;;;67.57;46.58;;;;;;;12.42;100.00;99284.56;2074284;28;20208;-73
2021/09/14 03:23:12;;;;;;;65.60;44.73;;;;;;;12.42;100.00;99286.44;2074199;28;20659;-74
2021/09/14 03:24:13;;;;;;;62.05;44.67;;;;;;;12.40;100.00;99286.72;2082019;28;20247;-74
2021/09/14 03:25:16;;;;;;;66.20;44.73;;;;;;;12.36;100.00;99282.31;2082449;28;20192;-73
2021/09/14 03:26:17;;;;;;;65.32;44.63;;;;;;;12.33;100.00;99283.69;2074456;28;20204;-73
2021/09/14 03:27:19;;;;;;;62.90;44.70;;;;;;;12.32;100.00;99287.44;2074151;28;20682;-73
2021/09/14 03:28:20;;;;;;;63.20;45.42;;;;;;;12.31;100.00;99291.22;2074289;28;20255;-74
2021/09/14 03:29:23;;;;;;;73.97;46.77;;;;;;;12.33;100.00;99291.69;2082403;28;20195;-73
2021/09/14 03:30:23;;;;;;;69.38;47.75;;;;;;;12.36;100.00;99284.97;2082388;28;20199;-72
2021/09/14 03:31:26;;;;;;;63.03;45.30;;;;;;;12.41;100.00;99293.66;2082321;28;20191;-72
2021/09/14 03:32:32;;;;;;;63.88;45.83;;;;;;;12.39;100.00;99295.84;2074914;28;20203;-73
2021/09/14 03:33:34;;;;;;;62.10;44.45;;;;;;;12.36;100.00;99287.66;2082603;28;20637;-72
2021/09/14 03:34:35;;;;;;;61.63;44.00;;;;;;;12.33;100.00;99286.34;2082518;28;20198;-72
2021/09/14 03:35:37;;;;;;;63.17;45.77;;;;;;;12.30;100.00;99286.97;2082445;28;20187;-72
2021/09/14 03:36:38;;;;;;;76.88;47.83;;;;;;;12.32;100.00;99289.34;2082292;28;20206;-73
2021/09/14 03:37:40;;;;;;;71.40;49.03;;;;;;;12.34;100.00;99285.28;2074101;28;20200;-73
2021/09/14 03:38:44;;;;;;;68.88;47.55;;;;;;;12.38;100.00;99288.94;2074216;28;20655;-72
2021/09/14 03:39:47;;;;;;;64.38;45.45;;;;;;;12.38;100.00;99293.50;2082071;28;20255;-73
2021/09/14 03:40:51;;;;;;;67.90;47.08;;;;;;;12.35;100.00;99288.75;2074499;28;20192;-73
2021/09/14 03:41:52;;;;;;;81.13;51.60;;;;;;;12.36;100.00;99293.00;2082186;28;20239;-73
2021/09/14 03:42:53;;;;;;;76.43;49.83;;;;;;;12.37;100.00;99290.03;2082347;28;20661;-73
2021/09/14 03:43:54;;;;;;;74.65;50.38;;;;;;;12.38;100.00;99293.50;2082337;28;20713;-73
2021/09/14 03:44:59;;;;;;;80.57;50.03;;;;;;;12.42;100.00;99289.91;2074218;28;20193;-73
2021/09/14 03:46:01;;;;;;;74.57;48.35;;;;;;;12.41;100.00;99296.34;2074351;28;20204;-73
2021/09/14 03:47:05;;;;;;;73.95;49.92;;;;;;;12.40;100.00;99302.00;2074382;28;20271;-73
2021/09/14 03:48:08;;;;;;;72.82;50.60;;;;;;;12.39;100.00;99295.06;2082224;28;20203;-73
2021/09/14 03:49:11;;;;;;;77.72;49.72;;;;;;;12.38;100.00;99294.28;2082164;28;20210;-73
2021/09/14 03:50:15;;;;;;;76.13;51.28;;;;;;;12.41;100.00;99293.66;2074428;28;20690;-73
2021/09/14 03:51:18;;;;;;;76.00;49.30;;;;;;;12.37;100.00;99292.69;2074547;28;20568;-73
2021/09/14 03:52:19;;;;;;;81.10;50.45;;;;;;;12.42;100.00;99294.44;2074082;28;20200;-73
2021/09/14 03:53:22;;;;;;;77.45;50.58;;;;;;;12.42;100.00;99295.28;2074156;28;20288;-73
2021/09/14 03:54:25;;;;;;;82.00;50.92;;;;;;;12.41;100.00;99293.66;2074296;28;20200;-73
2021/09/14 03:55:28;;;;;;;73.05;49.80;;;;;;;12.41;100.00;99288.31;2074176;28;20655;-73
2021/09/14 03:56:29;;;;;;;75.75;48.83;;;;;;;12.42;100.00;99289.09;2074089;28;20251;-74
2021/09/14 03:57:31;;;;;;;72.30;48.63;;;;;;;12.41;100.00;99293.66;2074019;28;20667;-73
2021/09/14 03:58:32;;;;;;;78.32;51.10;;;;;;;12.42;100.00;99292.59;2082494;28;20200;-74
2021/09/14 03:59:39;;;;;;;71.97;49.50;;;;;;;12.40;100.00;99285.94;2082390;28;20278;-73
2021/09/14 04:00:43;;;;;;;76.53;50.15;;;;;;;12.39;100.00;99290.50;2082123;28;20263;-73
2021/09/14 04:01:57;;;;;;;74.95;49.63;;;;;;;12.42;100.00;99299.81;2075485;28;20591;-73
2021/09/14 04:03:01;;;;;;;80.93;50.72;;;;;;;12.39;100.00;99295.84;2082597;28;20607;-73
2021/09/14 04:04:09;;;;;;;71.10;49.03;;;;;;;12.40;100.00;99300.13;2081954;28;20253;-73
2021/09/14 04:05:26;;;;;;;77.78;50.10;;;;;;;12.40;100.00;99299.31;2074438;28;20262;-73
2021/09/14 04:06:51;;;;;;;74.63;48.85;;;;;;;12.36;100.00;99291.13;2075031;28;20199;-73
2021/09/14 04:08:49;;;;;;;76.25;49.75;;;;;;;12.35;100.00;99302.91;2085795;28;20216;-73
2021/09/14 04:09:16;;;;;;;76.85;49.83;;;;;;;12.37;100.00;99303.41;2081976;28;20199;-74
2021/09/14 04:10:24;;;;;;;84.22;49.75;;;;;;;12.37;100.00;99300.72;2082121;28;20195;-73
2021/09/14 04:11:26;;;;;;;83.23;52.20;;;;;;;12.36;100.00;99301.81;2073280;28;20203;-73
2021/09/14 04:12:30;;;;;;;87.05;51.55;;;;;;;12.38;100.00;99307.66;2074445;28;20350;-73
2021/09/14 04:13:34;;;;;;;81.10;52.88;;;;;;;12.41;100.00;99306.25;2074230;28;20287;-73
2021/09/14 04:14:37;;;;;;;82.82;53.60;;;;;;;12.40;100.00;99307.34;2081972;28;20666;-73
2021/09/14 04:15:40;;;;;;;80.63;52.13;;;;;;;12.38;100.00;99302.31;2074182;28;20200;-73
2021/09/14 04:16:44;;;;;;;70.88;46.35;;;;;;;12.36;100.00;99312.53;2074321;28;20196;-73
2021/09/14 04:17:46;;;;;;;64.82;45.10;;;;;;;12.30;100.00;99303.00;2081963;28;20207;-72
2021/09/14 04:18:47;;;;;;;71.20;48.13;;;;;;;12.27;100.00;99297.50;2082300;28;20191;-73
2021/09/14 04:19:49;;;;;;;75.37;49.77;;;;;;;12.24;100.00;99301.53;2081946;28;20286;-73
2021/09/14 04:20:50;;;;;;;83.75;52.05;;;;;;;12.23;100.00;99304.50;2073833;28;20372;-72
2021/09/14 04:21:52;;;;;;;72.80;49.30;;;;;;;12.21;100.00;99304.81;2081815;28;20243;-72
2021/09/14 04:22:58;;;;;;;70.35;47.35;;;;;;;12.18;100.00;99301.97;2081986;28;20191;-72
2021/09/14 04:24:00;;;;;;;62.30;44.43;;;;;;;12.15;100.00;99300.66;2082254;28;20294;-72
2021/09/14 04:25:05;;;;;;;58.78;43.35;;;;;;;12.12;100.00;99306.63;2074352;28;20221;-73
2021/09/14 04:26:07;;;;;;;59.10;43.53;;;;;;;12.09;100.00;99305.34;2073728;28;20207;-72
2021/09/14 04:27:09;;;;;;;63.67;44.90;;;;;;;12.07;100.00;99301.38;2074156;28;20196;-72
2021/09/14 04:28:13;;;;;;;56.45;42.72;;;;;;;12.03;100.00;99308.41;2081907;28;20311;-72
2021/09/14 04:29:14;;;;;;;63.92;44.35;;;;;;;11.98;100.00;99300.50;2081533;28;20681;-73
2021/09/14 04:30:17;;;;;;;63.30;45.40;;;;;;;11.96;100.00;99314.16;2073716;28;20196;-73
2021/09/14 04:31:20;;;;;;;62.55;43.10;;;;;;;11.93;100.00;99308.63;2082477;28;20211;-73
2021/09/14 04:32:24;;;;;;;57.53;42.05;;;;;;;11.91;100.00;99310.81;2081965;28;20188;-73
2021/09/14 04:33:26;;;;;;;63.85;44.50;;;;;;;11.87;100.00;99306.03;2081731;28;20211;-73
2021/09/14 04:34:28;;;;;;;65.40;44.75;;;;;;;11.87;100.00;99316.75;2073537;28;20192;-72
2021/09/14 04:35:33;;;;;;;67.57;43.03;;;;;;;11.85;100.00;99315.47;2081798;28;20219;-72
2021/09/14 04:36:34;;;;;;;62.10;44.85;;;;;;;11.83;100.00;99320.31;2073889;28;20212;-72
2021/09/14 04:37:38;;;;;;;61.25;43.60;;;;;;;11.83;100.00;99320.31;2074224;28;20184;-73
2021/09/14 04:38:42;;;;;;;64.63;43.92;;;;;;;11.80;100.00;99318.22;2081868;28;20273;-73
2021/09/14 04:39:44;;;;;;;62.17;45.13;;;;;;;11.79;100.00;99324.63;2081634;28;20227;-73
2021/09/14 04:40:47;;;;;;;76.07;49.97;;;;;;;11.79;100.00;99319.28;2074050;28;20554;-72
2021/09/14 04:41:50;;;;;;;88.63;53.55;;;;;;;11.80;100.00;99326.25;2073605;28;20218;-73
2021/09/14 04:42:51;;;;;;;96.63;56.15;;;;;;;11.81;100.00;99325.16;2074039;28;20254;-73
2021/09/14 04:43:53;;;;;;;90.63;56.67;;;;;;;11.83;100.00;99318.44;2082082;28;20192;-73
2021/09/14 04:44:54;;;;;;;67.43;46.33;;;;;;;11.86;100.00;99328.53;2081850;28;20222;-73
2021/09/14 04:45:55;;;;;;;67.40;46.27;;;;;;;11.86;100.00;99323.19;2073572;28;20679;-73
2021/09/14 04:46:57;;;;;;;71.75;50.28;;;;;;;11.85;100.00;99324.28;2082086;28;20194;-73
2021/09/14 04:48:02;;;;;;;92.17;54.50;;;;;;;11.86;100.00;99328.53;2090632;28;20226;-73
2021/09/14 04:49:04;;;;;;;64.88;44.78;;;;;;;11.88;100.00;99328.22;2081695;28;20199;-73
2021/09/14 04:50:06;;;;;;;64.38;44.28;;;;;;;11.88;100.00;99331.69;2073519;28;20196;-73
2021/09/14 04:51:07;;;;;;;66.28;45.42;;;;;;;11.85;100.00;99329.63;2073772;28;20203;-73
2021/09/14 04:52:09;;;;;;;68.32;46.83;;;;;;;11.86;100.00;99320.50;2081674;28;20198;-73
2021/09/14 04:53:10;;;;;;;70.63;48.03;;;;;;;11.86;100.00;99323.19;2073528;28;20196;-73
2021/09/14 04:54:12;;;;;;;69.23;45.80;;;;;;;11.87;100.00;99326.66;2081773;28;20275;-73
2021/09/14 04:55:12;;;;;;;63.17;45.13;;;;;;;11.85;100.00;99318.94;2081737;28;20199;-73
2021/09/14 04:56:17;;;;;;;62.90;45.63;;;;;;;11.87;100.00;99321.28;2073540;28;20283;-72
2021/09/14 04:57:18;;;;;;;71.45;46.15;;;;;;;11.87;100.00;99324.75;2073953;28;20634;-73
2021/09/14 04:58:19;;;;;;;60.63;44.27;;;;;;;11.89;100.00;99329.81;2073781;28;20310;-73
2021/09/14 04:59:20;;;;;;;66.68;44.88;;;;;;;11.89;100.00;99324.47;2073545;28;20235;-73
2021/09/14 05:00:22;;;;;;;58.33;43.90;;;;;;;11.91;100.00;99322.31;2073099;28;20200;-73
2021/09/14 05:01:22;;;;;;;63.42;44.15;;;;;;;11.91;100.00;99334.88;2073447;28;20204;-73
2021/09/14 05:02:24;;;;;;;68.73;46.77;;;;;;;11.89;100.00;99335.16;2072768;28;20212;-73
2021/09/14 05:03:29;;;;;;;62.15;45.47;;;;;;;11.86;100.00;99336.56;2081654;28;20203;-73
2021/09/14 05:04:30;;;;;;;65.90;45.40;;;;;;;11.87;100.00;99335.47;2073694;28;20203;-73
2021/09/14 05:05:32;;;;;;;59.87;43.47;;;;;;;11.87;100.00;99332.78;2081627;28;20760;-72
2021/09/14 05:06:33;;;;;;;63.38;45.38;;;;;;;11.86;100.00;99331.19;2073548;28;20712;-72
2021/09/14 05:07:36;;;;;;;60.53;44.28;;;;;;;11.89;100.00;99335.94;2073552;28;20203;-73
2021/09/14 05:08:37;;;;;;;67.18;45.15;;;;;;;11.92;100.00;99339.94;2081588;28;20198;-72
2021/09/14 05:09:42;;;;;;;64.88;44.85;;;;;;;11.94;100.00;99337.75;2081635;28;20199;-72
2021/09/14 05:10:43;;;;;;;71.82;47.90;;;;;;;11.96;100.00;99340.09;2073241;28;20204;-72
2021/09/14 05:11:44;;;;;;;63.83;45.23;;;;;;;11.99;100.00;99339.50;2073468;28;20239;-73
2021/09/14 05:12:45;;;;;;;63.65;45.42;;;;;;;12.00;100.00;99336.56;2081532;28;20234;-73
2021/09/14 05:13:47;;;;;;;70.73;48.87;;;;;;;12.03;100.00;99340.50;2081675;28;20279;-73
2021/09/14 05:14:48;;;;;;;71.60;49.65;;;;;;;12.06;100.00;99343.38;2081566;28;20693;-73
2021/09/14 05:16:09;;;;;;;75.90;50.00;;;;;;;12.11;100.00;99343.28;2084351;28;20607;-73
2021/09/14 05:17:31;;;;;;;74.72;49.67;;;;;;;12.16;100.00;99345.03;2071753;28;20258;-73
2021/09/14 05:18:38;;;;;;;76.70;49.25;;;;;;;12.22;100.00;99343.84;2080495;28;20204;-72
2021/09/14 05:19:42;;;;;;;77.05;50.60;;;;;;;12.23;100.00;99350.78;2073548;28;20651;-73
2021/09/14 05:20:42;;;;;;;82.07;52.05;;;;;;;12.26;100.00;99347.53;2081866;28;20720;-73
2021/09/14 05:21:46;;;;;;;77.53;50.67;;;;;;;12.30;100.00;99345.81;2081500;28;20626;-73
2021/09/14 05:22:52;;;;;;;84.05;51.92;;;;;;;12.33;100.00;99350.56;2082085;28;20210;-73
2021/09/14 05:23:56;;;;;;;79.45;50.35;;;;;;;12.36;100.00;99355.34;2090436;28;20201;-72
2021/09/14 05:24:58;;;;;;;74.32;48.75;;;;;;;12.38;100.00;99350.47;2081925;28;20196;-73
2021/09/14 05:26:01;;;;;;;74.28;50.10;;;;;;;12.42;100.00;99353.31;2081925;28;20578;-72
2021/09/14 05:27:02;;;;;;;74.03;47.97;;;;;;;12.45;100.00;99350.06;2090361;28;20209;-73
2021/09/14 05:28:04;;;;;;;78.13;49.40;;;;;;;12.44;100.00;99349.28;2080997;28;20290;-73
2021/09/14 05:29:05;;;;;;;71.50;48.38;;;;;;;12.48;100.00;99351.34;2081622;28;20192;-73
2021/09/14 05:30:08;;;;;;;69.93;48.70;;;;;;;12.50;100.00;99355.28;2081466;28;20195;-73
2021/09/14 05:31:11;;;;;;;76.90;48.47;;;;;;;12.52;100.00;99349.66;2081794;28;20199;-72
2021/09/14 05:32:14;;;;;;;71.32;48.20;;;;;;;12.53;100.00;99348.56;2090316;28;20194;-73
2021/09/14 05:33:16;;;;;;;69.15;48.50;;;;;;;12.56;100.00;99354.09;2081578;28;20195;-73